createdAt,value
2023-03-19T00:02:15.456Z,98334.88
2023-03-19T00:04:43.845Z,98340.56
2023-03-19T00:07:11.184Z,98346.66
2023-03-19T00:09:37.843Z,98349.34
2023-03-19T00:12:04.983Z,98341.59
2023-03-19T00:14:31.620Z,98346.97
2023-03-19T00:16:58.205Z,98346.16
2023-03-19T00:19:25.382Z,98347.63
2023-03-19T00:21:52.241Z,98357.06
2023-03-19T00:24:19.009Z,98347.94
2023-03-19T00:26:45.524Z,98350.63
2023-03-19T00:29:12.933Z,98347.09
2023-03-19T00:31:40.790Z,98353.28
2023-03-19T00:34:08.230Z,98353.50
2023-03-19T00:36:34.758Z,98354.34
2023-03-19T00:39:01.296Z,98352.84
2023-03-19T00:41:28.924Z,98359.16
2023-03-19T00:43:56.945Z,98365.84
2023-03-19T00:46:24.578Z,98365.50
2023-03-19T00:48:55.414Z,98366.78
2023-03-19T00:51:23.697Z,98370.66
2023-03-19T00:53:51.083Z,98375.56
2023-03-19T00:56:18.792Z,98376.28
2023-03-19T00:58:45.596Z,98372.28
2023-03-19T01:01:15.802Z,98373.72
2023-03-19T01:03:42.473Z,98364.03
2023-03-19T01:06:09.196Z,98375.63
2023-03-19T01:08:35.866Z,98378.69
2023-03-19T01:11:07.320Z,98376.44
2023-03-19T01:13:34.225Z,98372.56
2023-03-19T01:16:00.791Z,98372.06
2023-03-19T01:18:27.277Z,98371.19
2023-03-19T01:20:53.750Z,98367.47
2023-03-19T01:23:20.273Z,98373.19
2023-03-19T01:25:47.627Z,98362.25
2023-03-19T01:28:14.135Z,98357.13
2023-03-19T01:30:41.155Z,98364.56
2023-03-19T01:33:08.254Z,98367.94
2023-03-19T01:35:34.860Z,98372.31
2023-03-19T01:38:01.372Z,98376.56
2023-03-19T01:40:28.431Z,98366.75
2023-03-19T01:43:21.732Z,98374.66
2023-03-19T01:45:51.635Z,98363.69
2023-03-19T01:48:25.803Z,98365.56
2023-03-19T01:50:55.254Z,98366.78
2023-03-19T01:53:33.774Z,98364.63
2023-03-19T01:56:09.068Z,98354.88
2023-03-19T01:58:35.927Z,98347.28
2023-03-19T02:01:03.193Z,98356.19
2023-03-19T02:03:30.722Z,98354.59
2023-03-19T02:05:59.288Z,98352.25
2023-03-19T02:08:26.219Z,98350.53
2023-03-19T02:10:55.960Z,98356.63
2023-03-19T02:13:23.566Z,98346.97
2023-03-19T02:15:51.858Z,98359.03
2023-03-19T02:18:18.921Z,98359.25
2023-03-19T02:20:45.378Z,98359.56
2023-03-19T02:23:30.315Z,98346.63
2023-03-19T02:26:02.892Z,98350.94
2023-03-19T02:28:31.907Z,98362.81
2023-03-19T02:30:58.741Z,98355.72
2023-03-19T02:33:25.276Z,98357.81
2023-03-19T02:35:53.039Z,98355.63
2023-03-19T02:38:23.014Z,98352.44
2023-03-19T02:40:54.201Z,98344.97
2023-03-19T02:43:22.284Z,98348.19
2023-03-19T02:45:48.988Z,98344.00
2023-03-19T02:48:15.487Z,98348.69
2023-03-19T02:50:42.203Z,98354.75
2023-03-19T02:53:08.787Z,98353.25
2023-03-19T02:55:35.541Z,98364.00
2023-03-19T02:58:02.186Z,98365.59
2023-03-19T03:00:28.700Z,98361.28
2023-03-19T03:02:57.356Z,98357.53
2023-03-19T03:05:23.979Z,98356.81
2023-03-19T03:07:50.498Z,98366.69
2023-03-19T03:10:17.154Z,98359.03
2023-03-19T03:12:43.818Z,98364.50
2023-03-19T03:15:10.511Z,98367.34
2023-03-19T03:17:38.157Z,98362.50
2023-03-19T03:20:06.152Z,98367.09
2023-03-19T03:22:32.914Z,98363.91
2023-03-19T03:24:59.440Z,98375.59
2023-03-19T03:27:27.118Z,98374.72
2023-03-19T03:29:53.653Z,98383.72
2023-03-19T03:32:20.183Z,98375.34
2023-03-19T03:34:46.684Z,98379.34
2023-03-19T03:37:13.189Z,98383.16
2023-03-19T03:39:39.661Z,98384.84
2023-03-19T03:42:07.353Z,98388.53
2023-03-19T03:44:33.818Z,98386.84
2023-03-19T03:47:00.315Z,98391.38
2023-03-19T03:49:27.049Z,98391.38
2023-03-19T03:51:53.514Z,98387.03
2023-03-19T03:54:19.993Z,98394.56
2023-03-19T03:56:46.452Z,98404.31
2023-03-19T03:59:12.955Z,98401.44
2023-03-19T04:01:39.491Z,98406.06
2023-03-19T04:04:06.118Z,98412.00
2023-03-19T04:06:32.591Z,98417.13
2023-03-19T04:08:59.077Z,98409.31
2023-03-19T04:11:25.851Z,98409.44
2023-03-19T04:13:56.559Z,98417.28
2023-03-19T04:16:24.159Z,98425.78
2023-03-19T04:18:50.672Z,98424.16
2023-03-19T04:21:17.415Z,98423.22
2023-03-19T04:23:43.880Z,98421.59
2023-03-19T04:26:10.622Z,98422.34
2023-03-19T04:28:37.524Z,98431.06
2023-03-19T04:31:06.572Z,98418.50
2023-03-19T04:33:34.118Z,98421.38
2023-03-19T04:36:01.394Z,98420.75
2023-03-19T04:38:28.519Z,98415.44
2023-03-19T04:40:56.259Z,98414.50
2023-03-19T04:43:24.112Z,98413.88
2023-03-19T04:45:51.509Z,98423.56
2023-03-19T04:48:18.426Z,98426.38
2023-03-19T04:50:47.175Z,98412.13
2023-03-19T04:53:13.822Z,98415.00
2023-03-19T04:55:41.015Z,98410.78
2023-03-19T04:58:09.028Z,98417.59
2023-03-19T05:00:35.695Z,98410.69
2023-03-19T05:03:02.299Z,98412.41
2023-03-19T05:05:28.857Z,98426.63
2023-03-19T05:07:57.323Z,98410.81
2023-03-19T05:10:24.080Z,98418.28
2023-03-19T05:12:50.681Z,98419.16
2023-03-19T05:15:17.301Z,98420.97
2023-03-19T05:17:43.774Z,98420.16
2023-03-19T05:20:12.743Z,98415.28
2023-03-19T05:22:39.254Z,98421.28
2023-03-19T05:25:06.933Z,98423.06
2023-03-19T05:27:34.180Z,98423.56
2023-03-19T05:30:01.498Z,98423.56
2023-03-19T05:32:28.752Z,98425.19
2023-03-19T05:34:55.253Z,98426.34
2023-03-19T05:37:21.955Z,98428.44
2023-03-19T05:39:48.472Z,98424.53
2023-03-19T05:42:15.635Z,98422.00
2023-03-19T05:44:42.358Z,98417.22
2023-03-19T05:47:12.746Z,98423.88
2023-03-19T05:49:39.233Z,98422.75
2023-03-19T05:52:06.173Z,98423.25
2023-03-19T05:54:32.720Z,98427.06
2023-03-19T05:56:59.282Z,98434.25
2023-03-19T05:59:25.852Z,98430.25
2023-03-19T06:01:52.362Z,98432.31
2023-03-19T06:04:18.969Z,98428.47
2023-03-19T06:06:45.580Z,98440.84
2023-03-19T06:09:12.140Z,98446.56
2023-03-19T06:11:40.406Z,98447.13
2023-03-19T06:14:07.267Z,98442.78
2023-03-19T06:16:33.797Z,98451.78
2023-03-19T06:19:00.790Z,98459.41
2023-03-19T06:21:29.807Z,98457.16
2023-03-19T06:23:56.767Z,98463.16
2023-03-19T06:26:24.254Z,98461.22
2023-03-19T06:28:51.158Z,98468.97
2023-03-19T06:31:18.026Z,98464.44
2023-03-19T06:33:44.823Z,98461.59
2023-03-19T06:36:11.601Z,98467.47
2023-03-19T06:38:38.229Z,98465.69
2023-03-19T06:41:04.986Z,98470.50
2023-03-19T06:43:31.964Z,98474.81
2023-03-19T06:45:58.542Z,98482.72
2023-03-19T06:48:25.159Z,98477.34
2023-03-19T06:50:51.646Z,98481.66
2023-03-19T06:53:18.174Z,98483.53
2023-03-19T06:55:46.149Z,98475.38
2023-03-19T06:58:12.903Z,98473.63
2023-03-19T07:00:39.493Z,98474.66
2023-03-19T07:03:07.454Z,98474.47
2023-03-19T07:05:34.023Z,98480.34
2023-03-19T07:08:00.743Z,98483.66
2023-03-19T07:10:27.408Z,98483.50
2023-03-19T07:12:54.249Z,98486.34
2023-03-19T07:15:21.567Z,98487.19
2023-03-19T07:17:49.032Z,98494.63
2023-03-19T07:20:16.226Z,98494.16
2023-03-19T07:22:42.781Z,98497.44
2023-03-19T07:25:09.717Z,98503.47
2023-03-19T07:27:36.193Z,98499.28
2023-03-19T07:30:02.753Z,98502.25
2023-03-19T07:32:29.300Z,98506.44
2023-03-19T07:34:56.215Z,98507.13
2023-03-19T07:37:22.791Z,98510.22
2023-03-19T07:39:49.363Z,98506.69
2023-03-19T07:42:15.898Z,98521.53
2023-03-19T07:44:42.422Z,98516.72
2023-03-19T07:47:22.450Z,98524.22
2023-03-19T07:49:52.821Z,98517.22
2023-03-19T07:52:19.292Z,98518.66
2023-03-19T07:54:46.017Z,98523.41
2023-03-19T07:57:12.611Z,98519.88
2023-03-19T07:59:39.086Z,98520.72
2023-03-19T08:02:06.489Z,98525.63
2023-03-19T08:04:33.136Z,98526.09
2023-03-19T08:07:00.643Z,98527.31
2023-03-19T08:09:27.591Z,98524.56
2023-03-19T08:11:54.088Z,98520.91
2023-03-19T08:14:22.505Z,98529.25
2023-03-19T08:16:49.497Z,98517.94
2023-03-19T08:19:16.836Z,98518.84
2023-03-19T08:21:43.450Z,98517.09
2023-03-19T08:24:09.975Z,98518.44
2023-03-19T08:26:37.598Z,98524.81
2023-03-19T08:29:04.454Z,98523.59
2023-03-19T08:31:31.113Z,98513.13
2023-03-19T08:34:00.192Z,98517.72
2023-03-19T08:36:27.545Z,98522.53
2023-03-19T08:38:54.923Z,98524.16
2023-03-19T08:41:22.242Z,98523.06
2023-03-19T08:43:49.076Z,98535.47
2023-03-19T08:46:16.387Z,98528.53
2023-03-19T08:48:43.503Z,98533.56
2023-03-19T08:51:10.803Z,98529.28
2023-03-19T08:53:37.742Z,98527.31
2023-03-19T08:56:07.892Z,98524.56
2023-03-19T08:58:34.888Z,98533.81
2023-03-19T09:01:07.243Z,98536.06
2023-03-19T09:03:33.777Z,98528.81
2023-03-19T09:06:05.804Z,98536.66
2023-03-19T09:08:33.185Z,98532.88
2023-03-19T09:11:00.177Z,98538.66
2023-03-19T09:13:27.222Z,98528.69
2023-03-19T09:15:53.989Z,98535.72
2023-03-19T09:18:20.931Z,98534.91
2023-03-19T09:20:47.757Z,98536.56
2023-03-19T09:23:14.222Z,98537.34
2023-03-19T09:25:40.715Z,98541.16
2023-03-19T09:28:07.217Z,98536.78
2023-03-19T09:30:33.679Z,98523.50
2023-03-19T09:33:00.504Z,98531.59
2023-03-19T09:35:31.208Z,98525.94
2023-03-19T09:37:58.824Z,98530.22
2023-03-19T09:40:30.174Z,98529.69
2023-03-19T09:43:15.670Z,98531.38
2023-03-19T09:45:42.313Z,98532.44
2023-03-19T09:48:32.471Z,98525.91
2023-03-19T09:51:00.651Z,98531.59
2023-03-19T09:53:29.863Z,98527.28
2023-03-19T09:55:59.649Z,98527.53
2023-03-19T09:58:32.950Z,98524.19
2023-03-19T10:01:01.125Z,98531.97
2023-03-19T10:04:06.763Z,98527.78
2023-03-19T10:06:40.265Z,98525.63
2023-03-19T10:09:16.898Z,98519.31
2023-03-19T10:12:40.103Z,98513.19
2023-03-19T10:15:31.101Z,98514.25
2023-03-19T10:18:04.143Z,98515.44
2023-03-19T10:21:05.690Z,98516.47
2023-03-19T10:23:45.705Z,98505.91
2023-03-19T10:26:16.540Z,98518.34
2023-03-19T10:28:46.571Z,98511.09
2023-03-19T10:31:18.268Z,98508.50
2023-03-19T10:34:13.065Z,98512.38
2023-03-19T10:36:39.645Z,98508.78
2023-03-19T10:39:07.842Z,98504.03
2023-03-19T10:41:43.140Z,98504.25
2023-03-19T10:44:25.527Z,98508.22
2023-03-19T10:46:52.019Z,98500.97
2023-03-19T10:49:18.503Z,98505.31
2023-03-19T10:51:48.830Z,98502.50
2023-03-19T10:54:21.661Z,98495.94
2023-03-19T10:56:49.380Z,98495.63
2023-03-19T10:59:31.140Z,98500.88
2023-03-19T11:02:01.102Z,98498.28
2023-03-19T11:04:29.716Z,98488.78
2023-03-19T11:07:03.513Z,98490.50
2023-03-19T11:09:35.078Z,98500.59
2023-03-19T11:12:28.022Z,98490.53
2023-03-19T11:14:57.692Z,98496.88
2023-03-19T11:17:38.694Z,98497.03
2023-03-19T11:20:11.475Z,98492.22
2023-03-19T11:22:39.721Z,98498.53
2023-03-19T11:25:25.719Z,98501.25
2023-03-19T11:28:12.172Z,98487.97
2023-03-19T11:31:08.121Z,98493.63
2023-03-19T11:33:58.827Z,98493.19
2023-03-19T11:36:28.149Z,98488.50
2023-03-19T11:39:00.762Z,98487.38
2023-03-19T11:41:36.715Z,98486.56
2023-03-19T11:44:10.739Z,98485.84
2023-03-19T11:46:59.052Z,98485.28
2023-03-19T11:49:42.733Z,98481.38
2023-03-19T11:52:28.627Z,98475.09
2023-03-19T11:55:02.403Z,98471.78
2023-03-19T11:57:51.677Z,98482.13
2023-03-19T12:00:36.516Z,98473.53
2023-03-19T12:03:25.481Z,98478.44
2023-03-19T12:06:19.315Z,98480.13
2023-03-19T12:08:55.838Z,98475.13
2023-03-19T12:11:37.516Z,98478.13
2023-03-19T12:14:30.355Z,98472.00
2023-03-19T12:17:15.497Z,98469.84
2023-03-19T12:20:17.771Z,98471.72
2023-03-19T12:23:21.689Z,98472.78
2023-03-19T12:25:48.297Z,98461.97
2023-03-19T12:28:25.044Z,98470.09
2023-03-19T12:31:00.989Z,98466.59
2023-03-19T12:33:43.680Z,98475.81
2023-03-19T12:36:18.344Z,98470.72
2023-03-19T12:38:50.930Z,98469.66
2023-03-19T12:41:26.079Z,98477.22
2023-03-19T12:44:09.615Z,98484.56
2023-03-19T12:46:36.293Z,98483.78
2023-03-19T12:49:13.305Z,98480.53
2023-03-19T12:51:45.535Z,98481.91
2023-03-19T12:54:21.301Z,98490.78
2023-03-19T12:57:07.100Z,98485.94
2023-03-19T12:59:44.552Z,98487.56
2023-03-19T13:02:56.232Z,98481.34
2023-03-19T13:06:08.667Z,98475.09
2023-03-19T13:08:54.258Z,98481.63
2023-03-19T13:11:44.597Z,98475.91
2023-03-19T13:14:26.888Z,98478.88
2023-03-19T13:17:07.398Z,98469.94
2023-03-19T13:19:54.147Z,98468.56
2023-03-19T13:22:34.395Z,98466.44
2023-03-19T13:25:03.063Z,98462.81
2023-03-19T13:27:35.837Z,98460.41
2023-03-19T13:30:11.355Z,98466.94
2023-03-19T13:32:42.281Z,98465.63
2023-03-19T13:35:27.596Z,98473.97
2023-03-19T13:38:04.633Z,98471.31
2023-03-19T13:40:38.688Z,98469.69
2023-03-19T13:43:28.026Z,98468.03
2023-03-19T13:46:04.779Z,98467.78
2023-03-19T13:49:16.228Z,98468.06
2023-03-19T13:51:42.826Z,98476.75
2023-03-19T13:54:12.806Z,98468.09
2023-03-19T13:57:01.240Z,98478.91
2023-03-19T13:59:30.366Z,98477.56
2023-03-19T14:01:58.450Z,98476.19
2023-03-19T14:04:32.675Z,98477.28
2023-03-19T14:07:40.428Z,98490.50
2023-03-19T14:10:22.949Z,98501.03
2023-03-19T14:12:50.364Z,98505.81
2023-03-19T14:15:22.536Z,98529.53
2023-03-19T14:18:00.547Z,98522.63
2023-03-19T14:20:39.254Z,98517.50
2023-03-19T14:23:10.761Z,98514.31
2023-03-19T14:26:12.714Z,98521.09
2023-03-19T14:29:06.103Z,98515.31
2023-03-19T14:31:38.694Z,98518.91
2023-03-19T14:34:11.087Z,98516.34
2023-03-19T14:37:11.742Z,98519.69
2023-03-19T14:39:43.925Z,98518.25
2023-03-19T14:42:21.250Z,98513.16
2023-03-19T14:45:14.186Z,98515.56
2023-03-19T14:48:07.430Z,98518.97
2023-03-19T14:50:49.942Z,98513.44
2023-03-19T14:53:24.708Z,98510.38
2023-03-19T14:55:53.309Z,98503.09
2023-03-19T14:58:20.831Z,98509.78
2023-03-19T15:00:51.226Z,98509.16
2023-03-19T15:03:20.917Z,98508.56
2023-03-19T15:05:52.540Z,98506.13
2023-03-19T15:08:23.205Z,98505.63
2023-03-19T15:11:08.562Z,98507.81
2023-03-19T15:13:48.671Z,98505.59
2023-03-19T15:16:39.075Z,98500.84
2023-03-19T15:19:12.433Z,98501.91
2023-03-19T15:21:39.185Z,98501.63
2023-03-19T15:24:07.251Z,98507.38
2023-03-19T15:26:36.569Z,98506.81
2023-03-19T15:29:04.477Z,98507.59
2023-03-19T15:31:52.710Z,98500.59
2023-03-19T15:34:29.740Z,98516.16
2023-03-19T15:37:15.427Z,98513.09
2023-03-19T15:39:47.671Z,98506.59
2023-03-19T15:42:16.825Z,98509.84
2023-03-19T15:44:50.873Z,98517.16
2023-03-19T15:47:21.968Z,98511.69
2023-03-19T15:49:59.948Z,98510.75
2023-03-19T15:52:31.110Z,98509.28
2023-03-19T15:55:00.787Z,98507.91
2023-03-19T15:57:28.848Z,98506.91
2023-03-19T15:59:56.433Z,98509.06
2023-03-19T16:02:28.514Z,98505.28
2023-03-19T16:05:20.363Z,98506.38
2023-03-19T16:07:43.697Z,98507.88
2023-03-19T16:10:31.400Z,98508.13
2023-03-19T16:13:03.851Z,98507.91
2023-03-19T16:15:39.760Z,98515.19
2023-03-19T16:18:22.158Z,98523.56
2023-03-19T16:21:01.669Z,98514.91
2023-03-19T16:23:35.461Z,98514.16
2023-03-19T16:26:37.472Z,98523.09
2023-03-19T16:29:25.553Z,98515.34
2023-03-19T16:31:58.087Z,98521.97
2023-03-19T16:34:36.613Z,98525.66
2023-03-19T16:37:41.076Z,98529.44
2023-03-19T16:40:13.522Z,98534.69
2023-03-19T16:42:41.591Z,98541.31
2023-03-19T16:45:17.178Z,98541.97
2023-03-19T16:47:48.598Z,98535.66
2023-03-19T16:50:16.473Z,98542.72
2023-03-19T16:52:44.823Z,98558.72
2023-03-19T16:55:32.734Z,98564.84
2023-03-19T16:58:02.118Z,98575.34
2023-03-19T17:00:32.075Z,98578.13
2023-03-19T17:02:59.074Z,98570.41
2023-03-19T17:05:26.938Z,98577.91
2023-03-19T17:07:57.253Z,98574.88
2023-03-19T17:10:27.384Z,98569.19
2023-03-19T17:12:56.303Z,98556.06
2023-03-19T17:15:43.316Z,98557.75
2023-03-19T17:18:17.286Z,98558.41
2023-03-19T17:20:57.548Z,98563.22
2023-03-19T17:23:26.980Z,98569.09
2023-03-19T17:25:54.336Z,98569.59
2023-03-19T17:28:20.986Z,98563.56
2023-03-19T17:30:47.814Z,98573.19
2023-03-19T17:33:34.705Z,98562.16
2023-03-19T17:36:01.597Z,98561.91
2023-03-19T17:38:33.434Z,98561.75
2023-03-19T17:41:00.065Z,98571.81
2023-03-19T17:43:26.609Z,98571.28
2023-03-19T17:45:55.024Z,98580.56
2023-03-19T17:48:25.389Z,98574.53
2023-03-19T17:50:53.656Z,98594.56
2023-03-19T17:53:20.317Z,98673.97
2023-03-19T17:55:47.131Z,98694.75
2023-03-19T17:58:22.598Z,98704.97
2023-03-19T18:00:51.470Z,98705.09
2023-03-19T18:03:21.924Z,98694.69
2023-03-19T18:05:50.594Z,98700.41
2023-03-19T18:08:20.118Z,98701.69
2023-03-19T18:10:47.114Z,98704.00
2023-03-19T18:13:13.660Z,98711.28
2023-03-19T18:15:42.651Z,98708.34
2023-03-19T18:18:21.594Z,98711.88
2023-03-19T18:20:48.667Z,98714.78
2023-03-19T18:23:18.367Z,98717.13
2023-03-19T18:25:45.896Z,98719.81
2023-03-19T18:28:12.822Z,98720.94
2023-03-19T18:30:41.399Z,98720.75
2023-03-19T18:33:14.994Z,98725.06
2023-03-19T18:35:44.996Z,98729.78
2023-03-19T18:38:17.937Z,98731.31
2023-03-19T18:40:45.945Z,98739.13
2023-03-19T18:43:15.832Z,98733.31
2023-03-19T18:45:44.567Z,98726.16
2023-03-19T18:48:32.915Z,98722.81
2023-03-19T18:50:59.744Z,98735.91
2023-03-19T18:53:26.609Z,98745.81
2023-03-19T18:55:53.242Z,98739.63
2023-03-19T18:58:28.868Z,98745.94
2023-03-19T19:00:55.735Z,98742.56
2023-03-19T19:03:29.552Z,98747.00
2023-03-19T19:05:56.618Z,98744.66
2023-03-19T19:08:25.236Z,98743.84
2023-03-19T19:10:56.680Z,98744.66
2023-03-19T19:13:28.448Z,98745.72
2023-03-19T19:15:55.273Z,98752.16
2023-03-19T19:18:24.636Z,98758.34
2023-03-19T19:20:52.879Z,98756.78
2023-03-19T19:23:20.353Z,98762.63
2023-03-19T19:25:50.972Z,98758.44
2023-03-19T19:28:27.805Z,98751.78
2023-03-19T19:30:57.466Z,98756.00
2023-03-19T19:33:28.025Z,98756.22
2023-03-19T19:35:55.529Z,98750.94
2023-03-19T19:38:22.034Z,98759.34
2023-03-19T19:40:51.566Z,98746.66
2023-03-19T19:43:21.498Z,98757.16
2023-03-19T19:45:50.300Z,98761.69
2023-03-19T19:48:22.684Z,98768.69
2023-03-19T19:50:49.416Z,98761.97
2023-03-19T19:53:18.339Z,98759.84
2023-03-19T19:55:45.650Z,98773.66
2023-03-19T19:58:24.536Z,98768.44
2023-03-19T20:01:02.716Z,98774.06
2023-03-19T20:03:32.813Z,98768.31
2023-03-19T20:06:01.488Z,98774.97
2023-03-19T20:08:28.775Z,98779.53
2023-03-19T20:10:56.122Z,98776.34
2023-03-19T20:13:34.030Z,98780.34
2023-03-19T20:16:02.006Z,98778.00
2023-03-19T20:18:32.071Z,98783.13
2023-03-19T20:20:59.672Z,98789.22
2023-03-19T20:23:26.646Z,98792.94
2023-03-19T20:25:53.378Z,98788.41
2023-03-19T20:28:26.423Z,98786.88
2023-03-19T20:30:54.282Z,98787.34
2023-03-19T20:33:21.680Z,98786.16
2023-03-19T20:35:48.638Z,98785.75
2023-03-19T20:38:15.449Z,98790.22
2023-03-19T20:40:56.815Z,98789.75
2023-03-19T20:43:28.181Z,98786.59
2023-03-19T20:45:59.569Z,98785.34
2023-03-19T20:48:27.242Z,98781.50
2023-03-19T20:50:54.652Z,98782.53
2023-03-19T20:53:21.600Z,98783.09
2023-03-19T20:55:49.196Z,98790.50
2023-03-19T20:58:24.025Z,98793.22
2023-03-19T21:00:51.025Z,98788.50
2023-03-19T21:03:20.520Z,98798.44
2023-03-19T21:05:47.162Z,98790.38
2023-03-19T21:08:20.581Z,98791.03
2023-03-19T21:10:48.311Z,98790.75
2023-03-19T21:13:17.805Z,98789.72
2023-03-19T21:15:49.697Z,98789.47
2023-03-19T21:18:17.065Z,98785.00
2023-03-19T21:20:46.212Z,98787.75
2023-03-19T21:23:18.578Z,98795.69
2023-03-19T21:25:46.287Z,98794.38
2023-03-19T21:28:35.535Z,98799.44
2023-03-19T21:31:02.385Z,98801.56
2023-03-19T21:33:34.210Z,98812.50
2023-03-19T21:36:03.024Z,98812.47
2023-03-19T21:38:32.293Z,98814.53
2023-03-19T21:41:01.519Z,98819.75
2023-03-19T21:43:35.336Z,98827.16
2023-03-19T21:46:13.927Z,98820.34
2023-03-19T21:48:44.396Z,98826.72
2023-03-19T21:51:16.351Z,98822.13
2023-03-19T21:53:43.835Z,98816.59
2023-03-19T21:56:23.314Z,98823.75
2023-03-19T21:58:52.169Z,98827.69
2023-03-19T22:01:22.489Z,98835.81
2023-03-19T22:03:49.792Z,98828.81
2023-03-19T22:06:17.123Z,98836.78
2023-03-19T22:08:48.633Z,98837.59
2023-03-19T22:11:26.083Z,98836.25
2023-03-19T22:13:53.422Z,98833.41
2023-03-19T22:16:23.890Z,98835.16
2023-03-19T22:18:52.200Z,98837.75
2023-03-19T22:21:21.656Z,98834.22
2023-03-19T22:23:48.828Z,98840.63
2023-03-19T22:26:27.615Z,98847.97
2023-03-19T22:28:54.947Z,98842.66
2023-03-19T22:31:22.354Z,98850.25
2023-03-19T22:33:49.154Z,98845.25
2023-03-19T22:36:15.859Z,98843.69
2023-03-19T22:38:44.815Z,98844.13
2023-03-19T22:41:14.650Z,98849.50
2023-03-19T22:43:41.625Z,98861.47
2023-03-19T22:46:12.113Z,98860.72
2023-03-19T22:48:38.846Z,98860.81
2023-03-19T22:51:06.058Z,98858.06
2023-03-19T22:53:36.962Z,98858.00
2023-03-19T22:56:04.637Z,98862.91
2023-03-19T22:58:31.153Z,98864.56
2023-03-19T23:00:57.925Z,98861.59
2023-03-19T23:03:28.228Z,98862.91
2023-03-19T23:05:58.297Z,98866.03
2023-03-19T23:08:24.794Z,98873.91
2023-03-19T23:10:51.879Z,98875.41
2023-03-19T23:13:18.433Z,98869.56
2023-03-19T23:15:45.652Z,98872.59
2023-03-19T23:18:19.362Z,98875.84
2023-03-19T23:20:46.583Z,98874.47
2023-03-19T23:23:16.656Z,98875.66
2023-03-19T23:25:45.034Z,98883.94
2023-03-19T23:28:23.850Z,98882.28
2023-03-19T23:30:51.539Z,98879.84
2023-03-19T23:33:19.766Z,98884.22
2023-03-19T23:35:47.362Z,98884.59
2023-03-19T23:38:14.510Z,98877.69
2023-03-19T23:40:44.146Z,98877.22
2023-03-19T23:43:22.011Z,98870.72
2023-03-19T23:45:50.133Z,98869.84
2023-03-19T23:48:29.175Z,98884.47
2023-03-19T23:50:55.642Z,98879.59
2023-03-19T23:53:27.700Z,98874.84
2023-03-19T23:55:59.015Z,98871.34
2023-03-19T23:58:39.546Z,98874.22
